Aviation Digital Data Service (ADDS)

Output produced by METARs form (1411 UTC 22 April 2021)
found at http://www.aviationweather.gov/metar/data/
 
VTUU 221400Z 19005KT 120V240 8000 NSC 28/24 Q1008 NOSIG
VTUU 221300Z 22006KT 180V250 6000 NSC 29/24 Q1007 NOSIG
VTUU 221200Z 21005KT 170V240 8000 FEW045 30/25 Q1007 NOSIG
VTUU 221100Z 18005KT 130V210 8000 FEW045 31/25 Q1006 NOSIG
VTUU 221000Z 00000KT 9000 FEW030 33/25 Q1005 NOSIG
VTUU 220900Z VRB04KT 9000 FEW030 34/23 Q1005 NOSIG
VTUU 220800Z 32005KT 290V350 9000 FEW030 34/23 Q1005 NOSIG
VTUU 220700Z VRB04KT 9000 FEW020CB 34/24 Q1007 NOSIG
VTUU 220600Z 27008KT 9000 FEW020CB 32/24 Q1008 NOSIG
VTUU 220500Z 24007KT 190V300 9000 FEW030 SCT090 33/24 Q1009 NOSIG
VTUU 220400Z VRB04KT 9000 SCT030 32/25 Q1011 NOSIG
VTUU 220300Z VRB03KT 9000 FEW025 SCT070 31/25 Q1011 NOSIG
VTUU 220200Z VRB02KT 9000 FEW020 SCT040 BKN070 29/25 Q1012 TEMPO FM0220 TL0250 5000 TSRA
VTUU 220100Z VRB04KT 9000 FEW020CB SCT070 28/24 Q1011 NOSIG
VTUU 220000Z VRB04KT 8000 FEW045 SCT070 26/24 Q1010 NOSIG
VTUU 212300Z VRB02KT 7000 FEW045 SCT070 26/25 Q1009 NOSIG
VTUU 212200Z 17004KT 100V240 9000 NSC 26/25 Q1008 NOSIG
VTUU 212100Z VRB03KT 9000 NSC 26/25 Q1008 NOSIG
VTUU 212000Z VRB02KT 9000 NSC 26/26 Q1008 NOSIG
VTUU 211900Z 00000KT 9000 NSC 26/26 Q1008 NOSIG
VTUU 211800Z VRB02KT 9000 NSC 26/26 Q1008 NOSIG
VTUU 211700Z 00000KT 9000 NSC 27/25 Q1009 NOSIG
VTUU 211600Z VRB02KT 9000 NSC 27/25 Q1009 NOSIG
VTUU 211500Z VRB01KT 9000 NSC 27/25 Q1009 NOSIG
TAF VTUU 221100Z 2212/2312 19005KT 9000 FEW030